Time;durP1;ratioP1;P1;durP2;ratioP2;P2;SDS_P1;SDS_P2;PMS_P1;PMS_P2;Temp;Humidity;BMP_temperature;BMP_pressure;BME280_temperature;BME280_humidity;BME280_pressure;Samples;Min_cycle;Max_cycle;Signal;HPM_P1;HPM_P2
2022/11/14 00:01:50;;;;;;;15.95;9.78;;;;;;;7.10;85.67;101742.94;1731170;82;21355;-88
2022/11/14 00:04:35;;;;;;;;;;;;;;;7.03;85.77;101744.02;1733928;83;21250;-89
2022/11/14 00:07:20;;;;;;;15.65;9.00;;;;;;;6.96;85.92;101749.84;1731183;83;20433;-91
2022/11/14 00:10:07;;;;;;;12.03;6.87;;;;;;;6.87;86.08;101742.27;1731191;83;20909;-89
2022/11/14 00:12:54;;;;;;;9.10;6.92;;;;;;;6.84;86.26;101734.51;1731214;83;20944;-88
2022/11/14 00:15:39;;;;;;;6.87;6.15;;;;;;;6.78;86.53;101735.55;1731674;83;21023;-89
2022/11/14 00:18:26;;;;;;;9.48;5.58;;;;;;;6.75;86.62;101731.69;1731239;83;20885;-89
2022/11/14 00:21:11;;;;;;;;;;;;;;;6.72;86.80;101733.09;1733761;82;20905;-89
2022/11/14 00:23:56;;;;;;;11.43;7.73;;;;;;;6.70;86.88;101744.00;1731791;83;20096;-89
2022/11/14 00:26:43;;;;;;;7.97;5.70;;;;;;;6.64;86.90;101739.78;1731222;82;20987;-89
2022/11/14 00:29:30;;;;;;;8.98;5.78;;;;;;;6.60;87.14;101731.66;1731841;83;20876;-89
2022/11/14 00:32:15;;;;;;;7.75;5.03;;;;;;;6.56;87.16;101728.72;1731344;82;21102;-87
2022/11/14 00:35:00;;;;;;;6.30;5.55;;;;;;;6.50;87.23;101734.53;1731451;83;20897;-88
2022/11/14 00:37:46;;;;;;;7.90;6.03;;;;;;;6.44;87.41;101741.59;1731132;82;20912;-88
2022/11/14 00:40:31;;;;;;;8.73;4.87;;;;;;;6.41;87.72;101736.47;1732460;83;21265;-87
2022/11/14 00:43:17;;;;;;;7.58;5.95;;;;;;;6.40;87.69;101745.61;1731683;83;20861;-89
2022/11/14 00:46:02;;;;;;;9.38;5.83;;;;;;;6.37;87.71;101744.39;1731481;82;21817;-89
2022/11/14 00:48:48;;;;;;;11.00;5.97;;;;;;;6.35;87.80;101751.39;1731474;83;20887;-89
2022/11/14 00:51:33;;;;;;;7.30;5.22;;;;;;;6.32;87.74;101754.08;1731239;82;20947;-88
2022/11/14 00:54:18;;;;;;;10.98;6.83;;;;;;;6.28;87.70;101761.10;1731330;83;20912;-86
2022/11/14 00:59:05;;;;;;;8.75;7.03;;;;;;;6.32;88.07;101748.87;1884424;75;23057;-89
2022/11/14 01:01:50;;;;;;;9.28;6.20;;;;;;;6.27;88.01;101762.43;1861422;77;20891;-88
2022/11/14 01:04:35;;;;;;;7.40;5.28;;;;;;;6.25;87.93;101755.98;1861160;77;22043;-89
2022/11/14 01:07:20;;;;;;;;;;;;;;;6.21;88.02;101753.88;1864834;77;20958;-88
2022/11/14 01:10:07;;;;;;;6.75;5.58;;;;;;;6.21;88.03;101764.75;1861097;77;20098;-89
2022/11/14 01:12:52;;;;;;;8.15;5.33;;;;;;;6.20;88.22;101759.11;1860967;77;20874;-88
2022/11/14 01:15:41;;;;;;;7.25;5.15;;;;;;;6.20;88.25;101758.69;1861066;76;20951;-88
2022/11/14 01:18:26;;;;;;;5.83;5.03;;;;;;;6.19;88.22;101760.87;1860834;76;21139;-88
2022/11/14 01:21:12;;;;;;;5.50;4.58;;;;;;;6.20;88.14;101761.72;1860885;76;21495;-89
2022/11/14 01:23:58;;;;;;;9.23;5.67;;;;;;;6.19;88.00;101754.81;1861047;77;20860;-89
2022/11/14 01:26:43;;;;;;;6.90;4.30;;;;;;;6.17;87.87;101760.05;1860992;77;21032;-89
2022/11/14 01:29:29;;;;;;;7.40;4.78;;;;;;;6.15;87.92;101757.07;1860954;77;20974;-87
2022/11/14 01:32:14;;;;;;;8.23;4.95;;;;;;;6.15;87.99;101768.34;1860973;77;21203;-87
2022/11/14 01:34:59;;;;;;;9.60;5.87;;;;;;;6.17;88.17;101773.52;1860892;77;20904;-87
2022/11/14 01:37:44;;;;;;;10.55;6.20;;;;;;;6.15;88.29;101769.64;1861198;77;20851;-87
2022/11/14 01:40:30;;;;;;;6.08;4.80;;;;;;;6.14;88.42;101773.16;1860890;77;20923;-88
2022/11/14 01:43:25;;;;;;;7.85;5.58;;;;;;;6.13;88.31;101772.72;1861062;76;20855;-86
2022/11/14 01:46:31;;;;;;;9.38;6.05;;;;;;;6.14;88.16;101777.52;1861042;76;22972;-86
2022/11/14 01:49:20;;;;;;;7.35;5.17;;;;;;;6.12;87.87;101779.30;1861241;77;20860;-85
2022/11/14 01:52:09;;;;;;;9.90;6.20;;;;;;;6.08;87.72;101778.95;1863632;77;20875;-84
2022/11/14 01:54:57;;;;;;;9.25;5.70;;;;;;;6.02;87.50;101781.23;1862186;76;21444;-88
2022/11/14 01:57:45;;;;;;;7.90;6.58;;;;;;;5.96;87.39;101786.14;1852620;75;21325;-85
2022/11/14 02:00:30;;;;;;;6.97;5.92;;;;;;;5.91;87.41;101778.82;1836428;77;21938;-88
2022/11/14 02:03:17;;;;;;;7.92;6.22;;;;;;;5.87;87.27;101782.83;1835697;76;20942;-88
2022/11/14 02:06:02;;;;;;;8.50;6.22;;;;;;;5.84;87.21;101788.11;1835690;78;20918;-89
2022/11/14 02:08:49;;;;;;;9.20;7.37;;;;;;;5.79;87.20;101790.82;1835490;77;20977;-89
2022/11/14 02:11:41;;;;;;;6.62;5.30;;;;;;;5.73;87.15;101789.19;1835136;77;21009;-88
2022/11/14 02:14:26;;;;;;;10.50;5.60;;;;;;;5.69;87.23;101783.66;1811485;77;21169;-88
2022/11/14 02:17:13;;;;;;;9.08;5.90;;;;;;;5.64;87.21;101782.03;1834951;77;20950;-88
2022/11/14 02:20:13;;;;;;;7.55;5.28;;;;;;;5.60;87.20;101789.03;1835423;76;20926;-89
2022/11/14 02:22:58;;;;;;;7.55;5.67;;;;;;;5.58;87.16;101785.59;1836856;77;20978;-87
2022/11/14 02:25:44;;;;;;;6.60;5.42;;;;;;;5.53;87.17;101793.95;1836827;77;20985;-87
2022/11/14 02:28:29;;;;;;;7.42;5.42;;;;;;;5.50;87.17;101790.13;1838403;77;21215;-88
2022/11/14 02:31:15;;;;;;;6.97;5.22;;;;;;;5.47;87.07;101796.25;1837820;77;20895;-88
2022/11/14 02:34:01;;;;;;;5.45;4.92;;;;;;;5.44;86.96;101797.59;1838013;76;20911;-87
2022/11/14 02:36:46;;;;;;;;;;;;;;;5.40;86.86;101805.03;1837941;77;20910;-88
2022/11/14 02:39:32;;;;;;;8.90;5.03;;;;;;;5.36;86.82;101799.50;1835203;77;20117;-88
2022/11/14 02:42:17;;;;;;;6.97;5.22;;;;;;;5.31;86.81;101802.16;1835357;77;21240;-88
2022/11/14 02:45:02;;;;;;;13.25;7.85;;;;;;;5.27;86.80;101804.85;1835260;77;24389;-88
2022/11/14 02:47:47;;;;;;;13.22;9.23;;;;;;;5.22;86.75;101797.59;1835226;77;20871;-87
2022/11/14 02:50:33;;;;;;;15.10;9.93;;;;;;;5.17;86.70;101802.87;1835471;76;20930;-87
2022/11/14 02:53:18;;;;;;;16.37;12.68;;;;;;;5.13;86.73;101805.11;1835784;77;20930;-87
2022/11/14 02:56:05;;;;;;;11.68;7.90;;;;;;;5.06;86.72;101801.77;1834998;77;21963;-87
2022/11/14 02:58:50;;;;;;;11.55;8.15;;;;;;;5.02;86.75;101805.75;1844553;77;20948;-87
2022/11/14 03:01:35;;;;;;;10.48;8.33;;;;;;;4.95;86.79;101808.45;1850979;77;20873;-87
2022/11/14 03:04:22;;;;;;;13.70;8.30;;;;;;;4.90;86.79;101803.78;1851026;77;20964;-88
2022/11/14 03:07:07;;;;;;;;;;;;;;;4.85;86.78;101802.17;1852676;77;20937;-88
2022/11/14 03:09:53;;;;;;;16.93;10.53;;;;;;;4.82;86.85;101804.34;1849726;77;21145;-88
2022/11/14 03:12:39;;;;;;;14.03;9.83;;;;;;;4.76;86.83;101807.08;1849732;77;20932;-86
2022/11/14 03:15:24;;;;;;;;;;;;;;;4.69;86.97;101808.03;1853140;77;20905;-87
2022/11/14 03:18:09;;;;;;;8.18;6.47;;;;;;;4.62;87.12;101817.67;1849503;76;20115;-88
2022/11/14 03:20:54;;;;;;;10.70;6.72;;;;;;;4.55;87.27;101819.95;1849688;77;20940;-87
2022/11/14 03:23:41;;;;;;;13.28;7.40;;;;;;;4.49;87.47;101820.92;1849661;77;21761;-88
2022/11/14 03:26:27;;;;;;;9.38;7.15;;;;;;;4.43;87.66;101821.45;1849483;77;20956;-89
2022/11/14 03:29:13;;;;;;;10.10;6.83;;;;;;;4.39;87.85;101818.48;1849707;77;20909;-88
2022/11/14 03:31:59;;;;;;;12.43;8.25;;;;;;;4.35;87.98;101825.00;1849541;77;20913;-88
2022/11/14 03:34:45;;;;;;;15.53;7.62;;;;;;;4.31;88.10;101823.36;1849404;77;21050;-88
2022/11/14 03:37:30;;;;;;;11.65;7.67;;;;;;;4.29;88.17;101828.12;1849330;77;21143;-88
2022/11/14 03:40:16;;;;;;;9.90;7.33;;;;;;;4.26;88.18;101827.73;1849534;77;21011;-88
2022/11/14 03:43:01;;;;;;;9.85;7.62;;;;;;;4.25;88.31;101831.67;1849734;76;20952;-87
2022/11/14 03:45:46;;;;;;;12.47;8.15;;;;;;;4.22;88.42;101831.25;1849826;77;21343;-88
2022/11/14 03:48:31;;;;;;;8.88;6.92;;;;;;;4.18;88.49;101828.72;1849426;77;20956;-89
2022/11/14 03:51:16;;;;;;;11.93;7.30;;;;;;;4.15;88.59;101835.67;1849397;77;21245;-90
2022/11/14 03:54:01;;;;;;;;;;;;;;;4.12;88.66;101838.32;1852108;77;20908;-90
2022/11/14 03:56:46;;;;;;;10.15;6.22;;;;;;;4.10;88.73;101841.38;1849942;76;20096;-90
2022/11/14 03:59:32;;;;;;;11.83;6.97;;;;;;;4.06;88.83;101837.09;1837925;75;20876;-90
2022/11/14 04:02:17;;;;;;;12.20;7.28;;;;;;;4.03;88.96;101844.09;1836215;76;20910;-88
2022/11/14 04:05:03;;;;;;;10.08;6.85;;;;;;;3.99;89.07;101847.59;1838162;77;21215;-91
2022/11/14 04:07:48;;;;;;;9.30;6.50;;;;;;;3.95;89.12;101846.31;1835431;78;20946;-91
2022/11/14 04:10:34;;;;;;;11.03;6.17;;;;;;;3.93;89.19;101849.81;1835117;77;20966;-89
2022/11/14 04:13:21;;;;;;;;;;;;;;;3.91;89.33;101855.05;1837421;77;20953;-90
2022/11/14 04:16:07;;;;;;;12.80;6.85;;;;;;;3.89;89.41;101861.10;1834956;77;20085;-91
2022/11/14 04:18:54;;;;;;;14.85;8.73;;;;;;;3.85;89.49;101859.00;1834855;78;21211;-89
2022/11/14 04:21:39;;;;;;;12.93;7.92;;;;;;;3.84;89.57;101862.45;1834881;77;20930;-87
2022/11/14 04:24:24;;;;;;;11.50;8.23;;;;;;;3.83;89.63;101867.24;1834909;77;21325;-91
2022/11/14 04:27:10;;;;;;;14.15;9.23;;;;;;;3.82;89.67;101864.66;1834844;76;21424;-89
2022/11/14 04:29:56;;;;;;;10.53;7.72;;;;;;;3.81;89.66;101874.19;1834864;76;20986;-89
2022/11/14 04:32:41;;;;;;;13.78;7.45;;;;;;;3.80;89.62;101879.38;1835118;77;21157;-90
2022/11/14 04:35:26;;;;;;;;;;;;;;;3.78;89.63;101869.45;1837766;77;20836;-90
2022/11/14 04:38:11;;;;;;;14.50;8.43;;;;;;;3.77;89.62;101884.61;1835231;77;20097;-90
2022/11/14 04:40:56;;;;;;;17.48;7.50;;;;;;;3.75;89.55;101879.44;1835264;77;20836;-89
2022/11/14 04:43:40;;;;;;;;;;;;;;;3.72;89.49;101886.82;1837612;77;20969;-90
2022/11/14 04:46:25;;;;;;;20.72;7.72;;;;;;;3.71;89.44;101888.13;1835117;77;21852;-91
2022/11/14 04:49:11;;;;;;;15.48;8.80;;;;;;;3.67;89.41;101894.25;1834957;78;20867;-90
2022/11/14 04:51:56;;;;;;;11.35;7.72;;;;;;;3.64;89.38;101893.81;1834946;76;20911;-91
2022/11/14 04:54:41;;;;;;;22.25;18.37;;;;;;;3.63;89.34;101890.81;1835089;77;21743;-90
2022/11/14 04:57:26;;;;;;;;;;;;;;;3.63;89.31;101899.05;1838511;77;21471;-92
2022/11/14 05:00:13;;;;;;;39.78;20.55;;;;;;;3.61;89.35;101898.20;1850900;77;21137;-89
2022/11/14 05:02:59;;;;;;;32.63;18.98;;;;;;;3.59;89.39;101898.65;1852635;77;21028;-87
2022/11/14 05:05:45;;;;;;;25.37;16.23;;;;;;;3.57;89.44;101901.69;1850129;77;20913;-91
2022/11/14 05:08:30;;;;;;;32.50;20.60;;;;;;;3.57;89.48;101905.14;1849608;77;20976;-91
2022/11/14 05:11:15;;;;;;;;;;;;;;;3.57;89.49;101910.33;1852294;77;21394;-89
2022/11/14 05:14:00;;;;;;;25.60;11.73;;;;;;;3.58;89.45;101908.17;1849735;76;21788;-92
2022/11/14 05:16:47;;;;;;;19.57;13.18;;;;;;;3.56;89.42;101912.52;1849367;77;21425;-90
2022/11/14 05:19:33;;;;;;;26.82;18.35;;;;;;;3.55;89.35;101917.26;1849224;77;20874;-90
2022/11/14 05:22:18;;;;;;;23.50;16.30;;;;;;;3.54;89.26;101918.15;1852587;77;20940;-88
2022/11/14 05:25:05;;;;;;;15.05;10.72;;;;;;;3.53;89.26;101921.19;1852361;77;20877;-91
2022/11/14 05:27:50;;;;;;;23.62;11.33;;;;;;;3.51;89.18;101924.23;1851820;77;22105;-92
2022/11/14 05:30:37;;;;;;;10.03;7.53;;;;;;;3.49;89.15;101924.68;1852094;77;20869;-90
2022/11/14 05:33:22;;;;;;;14.38;7.92;;;;;;;3.49;89.14;101926.39;1852817;77;20898;-90
2022/11/14 05:36:10;;;;;;;9.13;7.20;;;;;;;3.48;89.16;101926.83;1852751;77;20996;-88
2022/11/14 05:38:56;;;;;;;15.35;7.47;;;;;;;3.50;89.18;101930.72;1852028;77;20902;-92
2022/11/14 05:41:40;;;;;;;13.18;6.90;;;;;;;3.53;89.19;101931.97;1851939;77;21192;-91
2022/11/14 05:44:25;;;;;;;;;;;;;;;3.55;89.23;101935.41;1854688;77;21308;-89
2022/11/14 05:47:10;;;;;;;11.30;8.33;;;;;;;3.62;89.17;101936.22;1852451;77;20096;-88
2022/11/14 05:49:55;;;;;;;12.35;7.85;;;;;;;3.62;89.17;101936.22;1851221;77;21385;-89
2022/11/14 05:52:40;;;;;;;11.22;8.03;;;;;;;3.67;89.25;101941.80;1849898;76;25559;-90
2022/11/14 05:55:25;;;;;;;12.47;8.00;;;;;;;3.71;89.14;101944.78;1849977;77;21253;-92
2022/11/14 05:58:10;;;;;;;12.20;7.28;;;;;;;3.74;89.09;101940.00;1850177;75;21374;-90
2022/11/14 06:01:05;;;;;;;10.15;7.47;;;;;;;3.78;89.05;101949.89;1835706;77;20899;-88
2022/11/14 06:03:50;;;;;;;12.10;8.50;;;;;;;3.81;88.99;101947.28;1835153;77;20926;-92
2022/11/14 06:06:35;;;;;;;16.57;9.25;;;;;;;3.84;88.98;101947.23;1835123;77;21388;-90
2022/11/14 06:09:20;;;;;;;17.70;10.63;;;;;;;3.86;88.96;101953.27;1834958;78;21152;-90
2022/11/14 06:12:06;;;;;;;17.17;11.57;;;;;;;3.89;89.01;101950.22;1834939;77;20863;-93
2022/11/14 06:14:52;;;;;;;17.98;11.50;;;;;;;3.92;89.01;101951.47;1835178;77;20923;-90
2022/11/14 06:17:38;;;;;;;20.90;12.40;;;;;;;3.95;89.02;101950.12;1834910;76;20958;-91
2022/11/14 06:20:24;;;;;;;15.83;9.18;;;;;;;4.01;89.03;101950.95;1835089;78;20879;-92
2022/11/14 06:23:09;;;;;;;13.35;8.15;;;;;;;4.07;89.04;101957.35;1835297;77;21535;-91
2022/11/14 06:26:04;;;;;;;10.85;6.87;;;;;;;4.12;88.93;101953.84;1835074;78;20859;-90
2022/11/14 06:28:49;;;;;;;11.28;6.97;;;;;;;4.18;88.82;101956.81;1835420;77;21401;-92
2022/11/14 06:31:35;;;;;;;17.45;6.80;;;;;;;4.23;88.63;101958.06;1835055;77;20820;-91
2022/11/14 06:34:21;;;;;;;15.35;10.63;;;;;;;4.30;88.69;101959.70;1835189;77;20926;-91
2022/11/14 06:37:05;;;;;;;18.30;7.60;;;;;;;4.35;88.64;101966.98;1834991;77;21530;-90
2022/11/14 06:39:50;;;;;;;;;;;;;;;4.42;88.62;101968.61;1837506;76;20875;-92
2022/11/14 06:42:35;;;;;;;7.92;4.75;;;;;;;4.48;88.48;101975.04;1835100;76;20102;-89
2022/11/14 06:45:22;;;;;;;8.88;4.72;;;;;;;4.53;88.37;101978.42;1834917;77;20957;-91
2022/11/14 06:48:06;;;;;;;;;;;;;;;4.58;88.29;101977.09;1837733;77;20843;-89
2022/11/14 06:50:55;;;;;;;6.83;5.07;;;;;;;4.65;88.22;101978.73;1835215;78;21064;-92
2022/11/14 06:53:41;;;;;;;8.80;5.35;;;;;;;4.71;88.17;101981.25;1834891;76;21460;-90
2022/11/14 06:56:28;;;;;;;5.80;4.67;;;;;;;4.78;87.96;101975.08;1835234;77;20915;-90
2022/11/14 06:59:14;;;;;;;5.87;4.47;;;;;;;4.83;87.67;101984.55;1839491;77;20893;-89
2022/11/14 07:01:59;;;;;;;7.00;4.35;;;;;;;4.87;87.53;101971.91;1849403;77;20960;-90
2022/11/14 07:04:45;;;;;;;7.58;4.33;;;;;;;4.94;87.49;101977.46;1849469;76;21807;-91
2022/11/14 07:07:30;;;;;;;8.00;4.22;;;;;;;5.02;87.42;101973.44;1849271;77;20924;-91
2022/11/14 07:10:16;;;;;;;6.47;4.47;;;;;;;5.09;87.21;101978.95;1849667;77;20929;-90
2022/11/14 07:13:01;;;;;;;8.50;4.40;;;;;;;5.16;87.04;101972.80;1850242;77;20944;-89
2022/11/14 07:15:52;;;;;;;6.28;4.35;;;;;;;5.22;86.73;101970.08;1850789;77;20878;-89
2022/11/14 07:18:37;;;;;;;6.83;4.33;;;;;;;5.29;86.17;101977.34;1851208;77;21103;-90
2022/11/14 07:21:21;;;;;;;11.15;5.10;;;;;;;5.33;85.81;101970.76;1850479;77;20964;-91
2022/11/14 07:24:07;;;;;;;6.58;3.92;;;;;;;5.38;85.39;101969.37;1849700;77;20905;-88
2022/11/14 07:26:52;;;;;;;5.53;2.98;;;;;;;5.44;85.28;101964.53;1849842;77;21004;-91
2022/11/14 07:29:38;;;;;;;6.60;3.30;;;;;;;5.47;84.64;101964.47;1851502;77;21034;-90
2022/11/14 07:32:23;;;;;;;5.25;2.65;;;;;;;5.49;84.22;101964.88;1849569;77;20841;-90
2022/11/14 07:35:09;;;;;;;5.33;3.10;;;;;;;5.54;83.64;101963.05;1849498;77;21343;-89
2022/11/14 07:37:55;;;;;;;;;;;;;;;5.60;83.32;101958.16;1852372;77;20904;-90
2022/11/14 07:40:40;;;;;;;5.53;2.87;;;;;;;5.66;82.96;101958.52;1832649;77;20092;-90
2022/11/14 07:43:25;;;;;;;7.35;2.00;;;;;;;5.72;82.58;101961.02;1849916;77;21074;-89
2022/11/14 07:46:14;;;;;;;7.12;2.08;;;;;;;5.77;82.20;101963.93;1850249;77;21244;-90
2022/11/14 07:48:59;;;;;;;3.90;2.55;;;;;;;5.84;81.86;101965.13;1850706;76;20972;-89
2022/11/14 07:51:44;;;;;;;5.05;2.33;;;;;;;5.89;81.43;101957.66;1850192;77;20945;-91
2022/11/14 07:54:29;;;;;;;4.08;2.20;;;;;;;5.94;81.19;101964.08;1849339;77;20917;-91
2022/11/14 07:57:15;;;;;;;4.53;1.87;;;;;;;6.02;80.89;101962.20;1849775;77;20904;-90
2022/11/14 08:00:01;;;;;;;5.40;2.22;;;;;;;6.08;80.59;101965.14;1854986;77;21314;-90
2022/11/14 08:02:46;;;;;;;3.92;1.95;;;;;;;6.14;80.23;101960.67;1861753;77;20898;-89
2022/11/14 08:05:34;;;;;;;6.70;2.15;;;;;;;6.21;79.77;101960.10;1862986;77;20863;-90
2022/11/14 08:08:19;;;;;;;3.42;1.70;;;;;;;6.28;79.34;101962.14;1863743;77;20954;-89
2022/11/14 08:11:04;;;;;;;6.53;2.15;;;;;;;6.34;78.85;101964.63;1862314;77;20860;-89
2022/11/14 08:13:50;;;;;;;2.05;1.52;;;;;;;6.39;78.34;101964.08;1862075;77;20946;-89
2022/11/14 08:16:36;;;;;;;3.87;1.67;;;;;;;6.42;77.70;101963.58;1861648;77;20828;-90
2022/11/14 08:19:22;;;;;;;2.02;1.25;;;;;;;6.47;77.46;101967.39;1862162;77;20958;-88
2022/11/14 08:22:07;;;;;;;3.65;1.50;;;;;;;6.52;77.14;101973.34;1862252;77;20831;-90
2022/11/14 08:24:52;;;;;;;3.00;1.67;;;;;;;6.56;76.66;101976.31;1862307;76;20942;-91
2022/11/14 08:27:38;;;;;;;1.90;1.77;;;;;;;6.58;76.13;101978.44;1862173;77;21354;-92
2022/11/14 08:30:25;;;;;;;4.62;1.70;;;;;;;6.61;75.79;101973.59;1862032;76;21301;-89
2022/11/14 08:33:10;;;;;;;2.80;1.20;;;;;;;6.68;75.80;101973.02;1860823;77;20919;-93
2022/11/14 08:36:03;;;;;;;2.65;1.70;;;;;;;6.74;75.85;101956.80;1860686;77;20880;-90
2022/11/14 08:38:48;;;;;;;2.58;1.22;;;;;;;6.79;75.76;101957.54;1860771;77;21010;-93
2022/11/14 08:41:34;;;;;;;2.10;1.25;;;;;;;6.83;75.54;101954.44;1860832;76;21237;-91
2022/11/14 08:44:21;;;;;;;4.05;2.25;;;;;;;6.87;74.94;101956.08;1861604;77;20868;-90
2022/11/14 08:47:06;;;;;;;11.38;7.40;;;;;;;6.91;74.01;101953.79;1862972;77;20891;-92
2022/11/14 08:49:53;;;;;;;6.37;2.30;;;;;;;6.93;73.80;101952.00;1863401;77;21200;-93
2022/11/14 08:52:37;;;;;;;41.35;24.45;;;;;;;6.99;73.81;101950.56;1863341;77;20966;-90
2022/11/14 08:55:31;;;;;;;5.50;3.62;;;;;;;7.06;73.19;101942.14;1862672;77;26510;-90
2022/11/14 09:01:36;;;;;;;5.00;1.98;;;;;;;7.06;72.85;101931.26;1820379;77;21024;-91
2022/11/14 09:10:37;;;;;;;2.95;1.37;;;;;;;7.30;72.13;101938.08;1637278;87;20948;-92
2022/11/14 09:13:26;;;;;;;2.65;0.80;;;;;;;7.39;71.57;101942.22;1646560;87;20957;-89
2022/11/14 09:16:13;;;;;;;1.32;0.65;;;;;;;7.44;70.85;101928.14;1618887;87;21027;-90
2022/11/14 09:19:02;;;;;;;4.25;0.40;;;;;;;7.51;69.75;101926.22;1585456;89;21031;-90
2022/11/14 09:21:48;;;;;;;0.90;0.57;;;;;;;7.56;69.00;101920.88;1584298;89;20985;-91
2022/11/14 09:24:36;;;;;;;2.05;0.70;;;;;;;7.61;68.23;101924.25;1584825;90;21506;-89
2022/11/14 09:27:22;;;;;;;1.37;0.60;;;;;;;7.66;68.22;101914.07;1542946;92;20959;-90
2022/11/14 09:30:10;;;;;;;3.67;0.55;;;;;;;7.70;67.50;101914.86;1585863;90;21014;-89
2022/11/14 09:33:00;;;;;;;1.50;0.68;;;;;;;7.74;67.03;101917.80;1586267;89;21012;-90
2022/11/14 09:35:57;;;;;;;0.70;0.55;;;;;;;7.79;66.57;101905.92;1566501;90;20994;-90
2022/11/14 09:38:43;;;;;;;2.52;0.85;;;;;;;7.86;66.12;101908.30;1593979;89;21394;-89
2022/11/14 09:42:06;;;;;;;0.50;0.50;;;;;;;7.89;65.58;101903.02;1609231;89;21017;-89
2022/11/14 09:45:01;;;;;;;1.20;0.80;;;;;;;7.89;65.81;101914.77;1596775;89;21031;-90
2022/11/14 09:47:50;;;;;;;3.02;1.12;;;;;;;7.94;65.58;101904.61;1609610;88;21035;-89
2022/11/14 09:50:39;;;;;;;6.42;3.27;;;;;;;7.98;65.60;101901.02;1608069;87;20932;-89
2022/11/14 09:53:35;;;;;;;2.12;1.65;;;;;;;8.03;65.45;101901.77;1607496;88;21199;-91
2022/11/14 09:56:25;;;;;;;6.15;2.55;;;;;;;8.14;65.43;101898.81;1607435;88;21454;-89
2022/11/14 09:59:12;;;;;;;1.95;1.15;;;;;;;8.39;64.88;101903.73;1607428;88;20968;-88
2022/11/14 10:02:43;;;;;;;1.22;0.98;;;;;;;8.86;64.13;101906.66;1608725;88;20964;-88
2022/11/14 10:05:57;;;;;;;4.03;1.82;;;;;;;9.51;63.12;101901.88;1637767;87;20959;-89
2022/11/14 10:09:01;;;;;;;3.27;2.00;;;;;;;10.43;59.60;101895.91;1633132;86;20999;-89
2022/11/14 10:12:06;;;;;;;1.75;0.80;;;;;;;11.03;57.59;101890.02;1583224;89;21699;-89
2022/11/14 10:15:15;;;;;;;4.08;1.42;;;;;;;11.35;56.63;101884.27;1559201;88;21014;-91
2022/11/14 10:18:27;;;;;;;2.08;0.53;;;;;;;11.77;55.74;101884.63;1634306;83;21011;-90
2022/11/14 10:21:44;;;;;;;1.27;0.50;;;;;;;12.22;54.66;101882.62;1637609;87;20948;-90
2022/11/14 10:24:49;;;;;;;4.53;0.72;;;;;;;12.89;53.61;101882.95;1648676;87;21044;-93
2022/11/14 10:28:09;;;;;;;1.27;0.62;;;;;;;13.46;51.48;101875.22;1639672;87;20937;-90
2022/11/14 10:31:29;;;;;;;83.03;50.25;;;;;;;13.96;50.62;101863.38;1633368;87;21055;-91
2022/11/14 10:34:47;;;;;;;4.10;2.72;;;;;;;14.43;48.52;101867.84;1639791;87;21458;-90
2022/11/14 10:37:46;;;;;;;3.67;0.72;;;;;;;14.76;47.39;101854.98;1639862;84;21055;-89
2022/11/14 10:40:46;;;;;;;1.50;0.62;;;;;;;15.01;46.65;101856.59;1639634;87;21537;-91
2022/11/14 10:43:40;;;;;;;2.58;1.95;;;;;;;15.22;46.12;101850.49;1639478;87;21534;-91
2022/11/14 10:46:31;;;;;;;1.15;0.75;;;;;;;15.48;44.98;101850.73;1635990;87;21019;-93
2022/11/14 10:49:35;;;;;;;3.37;0.75;;;;;;;15.51;44.43;101846.56;1667716;80;20900;-92
2022/11/14 10:52:27;;;;;;;2.67;0.85;;;;;;;15.32;44.51;101850.33;1733116;81;20892;-91
2022/11/14 10:55:16;;;;;;;2.27;1.00;;;;;;;15.21;44.77;101844.00;1733749;82;21257;-90
2022/11/14 10:58:09;;;;;;;2.45;0.75;;;;;;;15.02;44.46;101840.27;1732952;82;21010;-90
2022/11/14 11:00:56;;;;;;;2.47;1.10;;;;;;;14.45;45.20;101847.47;1743808;81;20982;-91
2022/11/14 11:03:43;;;;;;;4.92;1.42;;;;;;;14.45;45.20;101847.47;1757351;81;20939;-91
2022/11/14 11:06:29;;;;;;;3.15;1.20;;;;;;;14.09;45.67;101852.10;1757273;81;20919;-88
2022/11/14 11:12:45;;;;;;;7.97;0.93;;;;;;;13.39;46.74;101849.28;1757862;80;20891;-90
2022/11/14 11:15:32;;;;;;;3.30;1.37;;;;;;;12.94;47.58;101844.06;1757198;80;20891;-91
2022/11/14 11:18:29;;;;;;;2.33;1.20;;;;;;;12.62;48.34;101847.84;1735517;81;21053;-90
2022/11/14 11:21:21;;;;;;;2.27;1.10;;;;;;;12.44;48.78;101853.06;1757053;81;20958;-90
2022/11/14 11:24:07;;;;;;;2.85;1.27;;;;;;;12.27;49.25;101850.84;1756936;81;21136;-88
2022/11/14 11:27:21;;;;;;;2.92;1.50;;;;;;;12.02;49.80;101849.36;1734818;81;20899;-90
2022/11/14 11:30:24;;;;;;;2.42;1.40;;;;;;;11.81;50.47;101845.93;1756817;81;20935;-89
2022/11/14 11:33:34;;;;;;;2.77;1.40;;;;;;;11.68;50.98;101835.11;1756241;81;20951;-89
2022/11/14 11:36:22;;;;;;;2.52;1.52;;;;;;;11.61;51.42;101841.10;1725361;83;21421;-91
2022/11/14 11:39:13;;;;;;;2.85;1.32;;;;;;;11.50;51.32;101838.10;1725609;82;21153;-89
2022/11/14 11:42:03;;;;;;;3.83;1.20;;;;;;;11.45;51.44;101836.15;1705419;82;21010;-91
2022/11/14 11:44:52;;;;;;;2.08;1.10;;;;;;;11.41;51.68;101835.89;1725695;82;20954;-91
2022/11/14 11:47:39;;;;;;;2.40;1.22;;;;;;;11.32;52.14;101831.04;1725782;82;21452;-90
2022/11/14 11:50:28;;;;;;;2.75;0.70;;;;;;;11.31;52.18;101824.06;1753589;79;20806;-92
2022/11/14 11:53:20;;;;;;;3.30;1.10;;;;;;;11.33;52.05;101824.38;1732580;79;21305;-91
2022/11/14 11:56:22;;;;;;;3.42;1.42;;;;;;;11.31;52.06;101830.63;1753283;79;20970;-89
2022/11/14 11:59:34;;;;;;;6.17;2.12;;;;;;;11.35;52.25;101827.80;1755039;79;21017;-91
2022/11/14 12:02:26;;;;;;;4.12;1.40;;;;;;;11.57;52.29;101840.00;1754069;82;20850;-87
2022/11/14 12:05:28;;;;;;;3.50;1.45;;;;;;;11.78;51.19;101839.04;1754440;81;20904;-90
2022/11/14 12:08:39;;;;;;;6.75;1.82;;;;;;;11.88;51.22;101836.02;1754009;82;21376;-90
2022/11/14 12:11:26;;;;;;;3.22;1.15;;;;;;;11.94;50.88;101835.72;1748523;81;20974;-89
2022/11/14 12:14:41;;;;;;;3.50;1.22;;;;;;;11.88;50.75;101838.18;1753086;81;20879;-90
2022/11/14 12:17:32;;;;;;;2.55;1.42;;;;;;;11.76;50.85;101834.75;1739255;82;21495;-91
2022/11/14 12:20:50;;;;;;;3.02;1.52;;;;;;;11.65;50.83;101828.69;1737552;82;20926;-89
2022/11/14 12:24:20;;;;;;;3.42;1.10;;;;;;;11.58;51.31;101832.49;1738527;82;21165;-89
2022/11/14 12:27:35;;;;;;;3.40;0.93;;;;;;;11.59;51.35;101835.53;1739299;82;21041;-89
2022/11/14 12:30:21;;;;;;;4.77;1.20;;;;;;;11.59;51.08;101836.84;1739501;82;20938;-91
2022/11/14 12:33:32;;;;;;;3.87;0.90;;;;;;;11.43;51.26;101830.11;1739936;82;20918;-89
2022/11/14 12:36:17;;;;;;;3.30;1.42;;;;;;;11.30;51.62;101835.50;1740435;82;21002;-89
2022/11/14 12:39:03;;;;;;;2.40;1.60;;;;;;;11.19;52.02;101830.71;1740505;82;21169;-92
2022/11/14 12:42:02;;;;;;;6.37;1.67;;;;;;;11.19;52.36;101830.71;1739303;82;20903;-88
2022/11/14 12:44:49;;;;;;;5.08;2.12;;;;;;;11.11;52.25;101832.34;1739148;82;20867;-90
2022/11/14 12:47:37;;;;;;;2.02;1.45;;;;;;;11.03;52.63;101825.27;1750967;80;20986;-91
2022/11/14 12:50:41;;;;;;;3.08;1.32;;;;;;;10.96;52.55;101825.11;1761317;80;20919;-89
2022/11/14 12:53:37;;;;;;;4.00;1.87;;;;;;;10.84;53.01;101828.27;1783537;80;21589;-90
2022/11/14 12:56:34;;;;;;;4.25;1.40;;;;;;;10.71;53.35;101832.70;1783523;80;21006;-91
2022/11/14 12:59:49;;;;;;;3.00;1.52;;;;;;;10.65;53.43;101838.65;1783749;80;20974;-91
2022/11/14 13:03:10;;;;;;;3.92;1.30;;;;;;;10.55;53.48;101835.09;1784612;78;21444;-89
2022/11/14 13:06:08;;;;;;;6.37;2.60;;;;;;;10.45;53.43;101830.27;1753618;82;21552;-90
2022/11/14 13:09:32;;;;;;;3.22;1.72;;;;;;;10.30;53.42;101832.60;1737071;81;21307;-90
2022/11/14 13:22:37;;;;;;;4.25;2.67;;;;;;;9.77;55.12;101836.78;1758759;80;21143;-89
2022/11/14 13:25:24;;;;;;;5.27;3.00;;;;;;;9.65;55.48;101834.16;1758764;80;20932;-91
2022/11/14 13:28:44;;;;;;;4.83;2.87;;;;;;;9.56;55.87;101834.51;1739267;81;20896;-93
2022/11/14 13:31:46;;;;;;;5.20;3.08;;;;;;;9.48;56.06;101833.92;1758506;80;20901;-91
2022/11/14 13:35:01;;;;;;;4.72;2.10;;;;;;;9.37;56.41;101832.98;1758606;80;20943;-90
2022/11/14 13:38:42;;;;;;;6.05;2.55;;;;;;;9.25;56.84;101839.95;1758713;80;21146;-89
2022/11/14 13:41:48;;;;;;;6.10;2.55;;;;;;;9.11;57.15;101841.31;1758701;80;20931;-91
2022/11/14 13:45:08;;;;;;;6.50;3.27;;;;;;;8.98;57.59;101838.70;1759342;80;21031;-90